createdAt,value
2023-03-12T00:00:24.451Z,94.63
2023-03-12T00:01:23.535Z,94.38
2023-03-12T00:02:23.548Z,94.59
2023-03-12T00:03:23.530Z,94.69
2023-03-12T00:04:23.505Z,94.59
2023-03-12T00:05:23.475Z,94.31
2023-03-12T00:06:23.489Z,95.01
2023-03-12T00:07:23.471Z,94.80
2023-03-12T00:08:23.487Z,94.38
2023-03-12T00:09:23.455Z,94.59
2023-03-12T00:10:23.454Z,95.11
2023-03-12T00:11:23.456Z,94.80
2023-03-12T00:12:23.446Z,94.90
2023-03-12T00:13:23.436Z,94.90
2023-03-12T00:14:23.423Z,95.32
2023-03-12T00:15:23.422Z,95.64
2023-03-12T00:16:23.512Z,95.75
2023-03-12T00:17:23.409Z,95.60
2023-03-12T00:18:23.399Z,95.18
2023-03-12T00:19:23.394Z,94.86
2023-03-12T00:20:23.518Z,95.07
2023-03-12T00:21:23.389Z,94.96
2023-03-12T00:22:23.371Z,95.28
2023-03-12T00:24:22.986Z,95.18
2023-03-12T00:25:22.980Z,94.60
2023-03-12T00:26:24.078Z,94.29
2023-03-12T00:27:24.062Z,93.87
2023-03-12T00:28:24.705Z,93.34
2023-03-12T00:29:24.037Z,93.87
2023-03-12T00:30:24.049Z,94.08
2023-03-12T00:31:24.096Z,93.55
2023-03-12T00:32:24.075Z,93.76
2023-03-12T00:33:24.016Z,94.08
2023-03-12T00:34:23.997Z,93.45
2023-03-12T00:35:24.076Z,93.24
2023-03-12T00:36:23.980Z,93.34
2023-03-12T00:37:23.985Z,93.19
2023-03-12T00:38:23.998Z,93.13
2023-03-12T00:39:24.013Z,93.13
2023-03-12T00:40:23.951Z,93.34
2023-03-12T00:41:23.969Z,93.51
2023-03-12T00:42:23.944Z,93.34
2023-03-12T00:43:23.928Z,92.99
2023-03-12T00:44:23.931Z,93.30
2023-03-12T00:45:23.909Z,93.30
2023-03-12T00:46:23.942Z,92.99
2023-03-12T00:47:23.898Z,92.99
2023-03-12T00:48:23.895Z,93.09
2023-03-12T00:49:23.871Z,93.19
2023-03-12T00:50:23.861Z,93.09
2023-03-12T00:51:23.861Z,93.30
2023-03-12T00:52:23.900Z,92.92
2023-03-12T00:53:24.599Z,92.88
2023-03-12T00:54:23.836Z,92.46
2023-03-12T00:55:23.831Z,92.35
2023-03-12T00:56:23.824Z,92.71
2023-03-12T00:57:23.815Z,92.57
2023-03-12T00:58:23.806Z,92.71
2023-03-12T00:59:23.798Z,92.50
2023-03-12T01:00:23.824Z,92.71
2023-03-12T01:01:23.772Z,92.71
2023-03-12T01:02:24.605Z,92.50
2023-03-12T01:03:23.779Z,92.99
2023-03-12T01:04:23.787Z,93.24
2023-03-12T01:05:23.759Z,93.34
2023-03-12T01:06:23.743Z,92.88
2023-03-12T01:07:23.753Z,92.67
2023-03-12T01:08:23.762Z,92.77
2023-03-12T01:09:23.731Z,92.46
2023-03-12T01:10:23.755Z,92.46
2023-03-12T01:11:23.715Z,92.46
2023-03-12T01:12:23.689Z,92.35
2023-03-12T01:13:23.715Z,92.46
2023-03-12T01:14:23.683Z,92.46
2023-03-12T01:15:23.687Z,92.57
2023-03-12T01:16:23.670Z,92.35
2023-03-12T01:17:23.670Z,92.25
2023-03-12T01:18:23.669Z,92.52
2023-03-12T01:19:23.748Z,92.63
2023-03-12T01:20:23.638Z,92.31
2023-03-12T01:21:23.647Z,92.10
2023-03-12T01:22:23.628Z,92.77
2023-03-12T01:23:23.640Z,92.42
2023-03-12T01:24:23.648Z,92.42
2023-03-12T01:25:23.597Z,91.68
2023-03-12T01:26:23.616Z,91.78
2023-03-12T01:27:23.586Z,91.78
2023-03-12T01:28:23.592Z,91.43
2023-03-12T01:29:23.594Z,91.43
2023-03-12T01:30:23.616Z,91.33
2023-03-12T01:31:23.602Z,91.33
2023-03-12T01:32:23.587Z,91.53
2023-03-12T01:33:23.540Z,91.33
2023-03-12T01:34:23.524Z,91.22
2023-03-12T01:35:24.572Z,91.33
2023-03-12T01:36:23.537Z,91.28
2023-03-12T01:37:23.511Z,90.97
2023-03-12T01:38:23.499Z,91.39
2023-03-12T01:39:23.506Z,91.07
2023-03-12T01:40:23.497Z,91.18
2023-03-12T01:41:23.480Z,90.97
2023-03-12T01:42:23.467Z,91.39
2023-03-12T01:43:23.457Z,91.45
2023-03-12T01:44:23.449Z,91.49
2023-03-12T01:45:23.452Z,91.39
2023-03-12T01:46:23.445Z,91.24
2023-03-12T01:47:23.447Z,91.18
2023-03-12T01:48:23.426Z,90.61
2023-03-12T01:49:23.404Z,90.72
2023-03-12T01:50:23.416Z,90.82
2023-03-12T01:51:23.397Z,90.34
2023-03-12T01:52:23.385Z,90.86
2023-03-12T01:53:23.381Z,90.72
2023-03-12T01:54:23.366Z,90.30
2023-03-12T01:55:23.366Z,90.92
2023-03-12T01:56:23.350Z,90.55
2023-03-12T01:57:23.344Z,90.40
2023-03-12T01:58:23.381Z,90.19
2023-03-12T01:59:23.341Z,90.44
2023-03-12T02:00:23.332Z,90.09
2023-03-12T02:01:23.429Z,90.23
2023-03-12T02:02:23.308Z,90.44
2023-03-12T02:03:23.288Z,90.34
2023-03-12T02:04:24.328Z,90.66
2023-03-12T02:05:23.284Z,90.61
2023-03-12T02:06:23.357Z,90.44
2023-03-12T02:07:23.291Z,90.34
2023-03-12T02:08:23.272Z,90.76
2023-03-12T02:09:23.328Z,90.86
2023-03-12T02:10:23.263Z,90.76
2023-03-12T02:11:23.242Z,90.76
2023-03-12T02:12:23.234Z,90.66
2023-03-12T02:13:23.225Z,90.86
2023-03-12T02:14:23.212Z,91.18
2023-03-12T02:15:23.203Z,90.76
2023-03-12T02:16:23.275Z,90.86
2023-03-12T02:17:23.204Z,90.86
2023-03-12T02:18:23.175Z,91.18
2023-03-12T02:19:23.164Z,90.86
2023-03-12T02:20:23.166Z,90.76
2023-03-12T02:21:23.152Z,90.76
2023-03-12T02:22:23.158Z,90.76
2023-03-12T02:23:23.153Z,91.18
2023-03-12T02:24:23.138Z,91.28
2023-03-12T02:25:23.119Z,91.39
2023-03-12T02:26:23.105Z,91.28
2023-03-12T02:27:23.136Z,91.28
2023-03-12T02:28:23.126Z,91.39
2023-03-12T02:29:23.087Z,91.28
2023-03-12T02:30:23.137Z,91.39
2023-03-12T02:31:23.134Z,91.39
2023-03-12T02:32:23.244Z,91.60
2023-03-12T02:33:23.068Z,91.39
2023-03-12T02:34:23.047Z,91.07
2023-03-12T02:35:23.061Z,91.49
2023-03-12T02:36:23.041Z,91.18
2023-03-12T02:37:23.024Z,91.24
2023-03-12T02:38:23.051Z,91.28
2023-03-12T02:39:23.617Z,91.39
2023-03-12T02:40:23.030Z,91.39
2023-03-12T02:41:22.994Z,91.24
2023-03-12T02:42:22.999Z,91.71
2023-03-12T02:43:22.979Z,91.77
2023-03-12T02:44:22.986Z,91.81
2023-03-12T02:45:22.975Z,91.97
2023-03-12T02:46:23.064Z,91.60
2023-03-12T02:47:22.953Z,91.49
2023-03-12T02:48:22.936Z,92.08
2023-03-12T02:49:22.945Z,91.77
2023-03-12T02:50:22.950Z,91.91
2023-03-12T02:51:22.934Z,91.66
2023-03-12T02:52:22.915Z,91.24
2023-03-12T02:53:22.916Z,91.91
2023-03-12T02:54:22.911Z,91.71
2023-03-12T02:55:22.903Z,91.35
2023-03-12T02:56:22.885Z,91.35
2023-03-12T02:57:22.890Z,91.18
2023-03-12T02:58:22.869Z,91.03
2023-03-12T02:59:22.871Z,91.24
2023-03-12T03:00:22.851Z,91.45
2023-03-12T03:01:22.876Z,90.61
2023-03-12T03:02:22.840Z,90.51
2023-03-12T03:03:22.827Z,90.61
2023-03-12T03:04:22.931Z,90.30
2023-03-12T03:05:22.842Z,90.61
2023-03-12T03:06:23.613Z,90.61
2023-03-12T03:07:22.800Z,90.19
2023-03-12T03:08:22.803Z,90.40
2023-03-12T03:09:22.781Z,90.30
2023-03-12T03:10:22.792Z,90.25
2023-03-12T03:11:23.590Z,90.15
2023-03-12T03:12:23.632Z,90.30
2023-03-12T03:13:22.750Z,90.05
2023-03-12T03:14:22.758Z,90.36
2023-03-12T03:15:22.733Z,89.94
2023-03-12T03:16:22.730Z,90.15
2023-03-12T03:17:22.730Z,90.36
2023-03-12T03:18:23.630Z,89.52
2023-03-12T03:19:22.714Z,89.56
2023-03-12T03:20:22.714Z,90.30
2023-03-12T03:21:22.697Z,90.25
2023-03-12T03:22:22.678Z,90.30
2023-03-12T03:23:22.665Z,90.09
2023-03-12T03:24:22.700Z,90.40
2023-03-12T03:25:22.675Z,90.09
2023-03-12T03:26:22.662Z,90.23
2023-03-12T03:27:22.643Z,90.44
2023-03-12T03:28:22.646Z,90.82
2023-03-12T03:29:22.660Z,90.92
2023-03-12T03:30:22.609Z,91.07
2023-03-12T03:31:22.716Z,91.28
2023-03-12T03:32:22.650Z,91.28
2023-03-12T03:33:22.610Z,91.35
2023-03-12T03:34:22.599Z,90.55
2023-03-12T03:35:22.618Z,91.14
2023-03-12T03:36:22.587Z,91.18
2023-03-12T03:37:22.566Z,91.39
2023-03-12T03:38:22.581Z,91.35
2023-03-12T03:39:22.568Z,90.97
2023-03-12T03:40:22.539Z,92.02
2023-03-12T03:41:22.520Z,91.91
2023-03-12T03:42:22.529Z,91.91
2023-03-12T03:43:22.565Z,91.28
2023-03-12T03:44:22.504Z,91.18
2023-03-12T03:45:22.501Z,91.07
2023-03-12T03:46:22.566Z,91.11
2023-03-12T03:47:22.487Z,91.22
2023-03-12T03:48:22.489Z,91.96
2023-03-12T03:49:22.484Z,91.53
2023-03-12T03:50:22.472Z,91.33
2023-03-12T03:51:22.483Z,90.76
2023-03-12T03:52:22.445Z,90.69
2023-03-12T03:53:22.443Z,90.76
2023-03-12T03:54:22.447Z,90.66
2023-03-12T03:55:22.434Z,90.55
2023-03-12T03:56:22.410Z,90.44
2023-03-12T03:57:22.420Z,90.66
2023-03-12T03:58:22.408Z,90.86
2023-03-12T03:59:22.387Z,91.07
2023-03-12T04:00:22.400Z,90.86
2023-03-12T04:01:22.372Z,90.76
2023-03-12T04:02:22.374Z,90.66
2023-03-12T04:03:22.408Z,91.14
2023-03-12T04:04:22.396Z,90.72
2023-03-12T04:05:22.418Z,90.30
2023-03-12T04:06:22.341Z,90.09
2023-03-12T04:07:22.330Z,90.09
2023-03-12T04:08:22.329Z,90.36
2023-03-12T04:09:22.316Z,90.72
2023-03-12T04:10:22.301Z,90.67
2023-03-12T04:11:22.295Z,90.67
2023-03-12T04:12:22.287Z,90.78
2023-03-12T04:13:22.320Z,90.47
2023-03-12T04:14:22.289Z,90.36
2023-03-12T04:15:22.278Z,90.36
2023-03-12T04:16:22.333Z,90.25
2023-03-12T04:17:22.258Z,90.25
2023-03-12T04:18:22.260Z,90.15
2023-03-12T04:19:22.236Z,90.05
2023-03-12T04:20:23.120Z,90.57
2023-03-12T04:21:22.206Z,90.36
2023-03-12T04:22:22.216Z,91.14
2023-03-12T04:23:22.206Z,91.14
2023-03-12T04:24:22.199Z,91.20
2023-03-12T04:25:22.187Z,91.09
2023-03-12T04:26:22.182Z,90.82
2023-03-12T04:27:22.177Z,90.57
2023-03-12T04:28:22.164Z,90.25
2023-03-12T04:29:22.151Z,90.57
2023-03-12T04:30:22.167Z,90.57
2023-03-12T04:31:22.187Z,90.36
2023-03-12T04:32:22.160Z,90.42
2023-03-12T04:33:22.126Z,90.47
2023-03-12T04:34:22.111Z,90.57
2023-03-12T04:35:22.100Z,90.42
2023-03-12T04:36:22.106Z,90.42
2023-03-12T04:37:22.122Z,90.36
2023-03-12T04:38:22.088Z,90.15
2023-03-12T04:39:22.103Z,90.67
2023-03-12T04:40:22.133Z,90.57
2023-03-12T04:41:22.065Z,90.36
2023-03-12T04:42:22.068Z,90.64
2023-03-12T04:43:22.049Z,90.64
2023-03-12T04:44:22.038Z,90.74
2023-03-12T04:45:22.040Z,90.64
2023-03-12T04:46:22.090Z,90.64
2023-03-12T04:47:22.023Z,90.22
2023-03-12T04:48:22.020Z,90.49
2023-03-12T04:49:21.994Z,90.49
2023-03-12T04:50:22.013Z,90.28
2023-03-12T04:51:22.012Z,90.28
2023-03-12T04:52:21.979Z,90.17
2023-03-12T04:53:22.091Z,90.17
2023-03-12T04:54:21.969Z,90.07
2023-03-12T04:55:21.975Z,89.86
2023-03-12T04:56:21.949Z,90.07
2023-03-12T04:57:21.944Z,90.07
2023-03-12T04:58:22.695Z,89.65
2023-03-12T04:59:21.936Z,89.40
2023-03-12T05:00:21.947Z,88.87
2023-03-12T05:01:21.903Z,89.02
2023-03-12T05:02:21.969Z,88.98
2023-03-12T05:03:21.906Z,89.12
2023-03-12T05:04:21.899Z,88.35
2023-03-12T05:05:21.890Z,88.67
2023-03-12T05:06:21.883Z,88.67
2023-03-12T05:07:21.866Z,88.67
2023-03-12T05:08:21.868Z,88.60
2023-03-12T05:09:21.853Z,88.71
2023-03-12T05:10:21.852Z,88.18
2023-03-12T05:11:21.853Z,88.81
2023-03-12T05:12:21.840Z,88.81
2023-03-12T05:13:21.840Z,88.71
2023-03-12T05:14:21.809Z,88.39
2023-03-12T05:15:21.808Z,88.39
2023-03-12T05:16:21.784Z,88.81
2023-03-12T05:17:21.801Z,88.81
2023-03-12T05:18:21.772Z,89.12
2023-03-12T05:19:21.790Z,89.02
2023-03-12T05:20:21.779Z,88.71
2023-03-12T05:21:22.641Z,88.60
2023-03-12T05:22:22.274Z,88.49
2023-03-12T05:23:21.733Z,88.39
2023-03-12T05:24:21.762Z,88.64
2023-03-12T05:25:21.783Z,88.54
2023-03-12T05:26:21.714Z,88.60
2023-03-12T05:27:21.721Z,88.96
2023-03-12T05:28:21.731Z,88.85
2023-03-12T05:29:21.704Z,89.12
2023-03-12T05:30:21.707Z,89.02
2023-03-12T05:31:21.765Z,88.96
2023-03-12T05:32:21.734Z,89.34
2023-03-12T05:33:21.669Z,89.27
2023-03-12T05:34:21.669Z,88.92
2023-03-12T05:35:21.665Z,89.34
2023-03-12T05:36:21.706Z,89.34
2023-03-12T05:37:21.655Z,89.23
2023-03-12T05:38:21.671Z,89.02
2023-03-12T05:39:21.663Z,89.23
2023-03-12T05:40:21.610Z,89.12
2023-03-12T05:41:21.599Z,88.92
2023-03-12T05:42:21.603Z,89.12
2023-03-12T05:43:21.579Z,89.02
2023-03-12T05:44:21.742Z,88.81
2023-03-12T05:45:21.569Z,89.02
2023-03-12T05:46:21.574Z,88.60
2023-03-12T05:47:21.557Z,88.60
2023-03-12T05:48:21.554Z,88.39
2023-03-12T05:49:21.529Z,88.71
2023-03-12T05:50:21.555Z,88.07
2023-03-12T05:51:21.543Z,88.60
2023-03-12T05:52:21.504Z,88.29
2023-03-12T05:53:21.536Z,88.60
2023-03-12T05:54:21.493Z,88.49
2023-03-12T05:55:21.519Z,88.60
2023-03-12T05:56:21.510Z,88.07
2023-03-12T05:57:21.482Z,88.49
2023-03-12T05:58:21.476Z,88.49
2023-03-12T05:59:21.477Z,88.07
2023-03-12T06:00:21.441Z,88.49
2023-03-12T06:01:21.459Z,88.18
2023-03-12T06:02:21.499Z,87.97
2023-03-12T06:03:21.550Z,88.07
2023-03-12T06:04:21.418Z,88.14
2023-03-12T06:05:21.426Z,88.14
2023-03-12T06:06:21.420Z,88.24
2023-03-12T06:07:21.383Z,88.24
2023-03-12T06:08:21.407Z,87.83
2023-03-12T06:09:21.409Z,87.93
2023-03-12T06:10:21.378Z,87.41
2023-03-12T06:11:21.366Z,87.58
2023-03-12T06:12:21.373Z,86.53
2023-03-12T06:13:21.354Z,86.25
2023-03-12T06:14:21.359Z,86.53
2023-03-12T06:15:21.328Z,85.80
2023-03-12T06:16:21.349Z,86.53
2023-03-12T06:17:21.327Z,86.22
2023-03-12T06:18:21.314Z,86.32
2023-03-12T06:19:21.308Z,86.32
2023-03-12T06:20:21.296Z,86.22
2023-03-12T06:21:21.312Z,85.27
2023-03-12T06:22:21.271Z,86.00
2023-03-12T06:23:21.672Z,85.69
2023-03-12T06:24:22.261Z,86.11
2023-03-12T06:25:21.265Z,85.90
2023-03-12T06:26:21.249Z,85.75
2023-03-12T06:27:22.148Z,85.55
2023-03-12T06:28:21.241Z,85.13
2023-03-12T06:29:21.243Z,84.92
2023-03-12T06:30:21.245Z,84.81
2023-03-12T06:31:21.225Z,85.09
2023-03-12T06:32:21.226Z,85.09
2023-03-12T06:33:21.189Z,84.88
2023-03-12T06:34:21.184Z,84.56
2023-03-12T06:35:21.305Z,84.36
2023-03-12T06:36:21.719Z,84.42
2023-03-12T06:37:21.158Z,84.56
2023-03-12T06:38:21.158Z,84.78
2023-03-12T06:39:21.174Z,84.88
2023-03-12T06:40:21.134Z,84.88
2023-03-12T06:41:21.141Z,84.88
2023-03-12T06:42:21.118Z,84.67
2023-03-12T06:43:21.120Z,85.16
2023-03-12T06:44:21.126Z,84.53
2023-03-12T06:45:21.105Z,85.05
2023-03-12T06:46:21.107Z,84.70
2023-03-12T06:47:21.082Z,84.39
2023-03-12T06:48:21.082Z,84.17
2023-03-12T06:49:21.073Z,83.93
2023-03-12T06:50:21.065Z,83.30
2023-03-12T06:51:21.074Z,83.40
2023-03-12T06:52:21.043Z,83.40
2023-03-12T06:53:21.021Z,82.57
2023-03-12T06:54:21.044Z,82.36
2023-03-12T06:55:21.016Z,81.80
2023-03-12T06:56:21.007Z,82.22
2023-03-12T06:57:20.989Z,81.90
2023-03-12T06:58:20.996Z,81.38
2023-03-12T06:59:20.995Z,81.03
2023-03-12T07:00:20.979Z,81.18
2023-03-12T07:01:20.972Z,81.13
2023-03-12T07:02:21.088Z,80.72
2023-03-12T07:03:20.953Z,80.51
2023-03-12T07:04:20.950Z,80.41
2023-03-12T07:05:21.024Z,80.51
2023-03-12T07:06:20.940Z,80.30
2023-03-12T07:07:20.931Z,79.88
2023-03-12T07:08:20.933Z,80.20
2023-03-12T07:09:20.920Z,80.47
2023-03-12T07:10:20.895Z,80.47
2023-03-12T07:11:20.901Z,79.53
2023-03-12T07:12:20.898Z,78.80
2023-03-12T07:13:20.906Z,78.97
2023-03-12T07:14:20.880Z,78.87
2023-03-12T07:15:20.862Z,78.35
2023-03-12T07:16:20.883Z,78.35
2023-03-12T07:17:20.879Z,78.45
2023-03-12T07:18:20.846Z,78.77
2023-03-12T07:19:20.829Z,78.14
2023-03-12T07:20:20.857Z,78.66
2023-03-12T07:21:20.810Z,78.73
2023-03-12T07:22:20.803Z,78.66
2023-03-12T07:23:20.794Z,78.66
2023-03-12T07:24:20.824Z,78.45
2023-03-12T07:25:21.272Z,78.04
2023-03-12T07:26:20.761Z,78.45
2023-03-12T07:27:20.771Z,78.11
2023-03-12T07:28:20.781Z,77.90
2023-03-12T07:29:20.753Z,76.65
2023-03-12T07:30:20.735Z,76.82
2023-03-12T07:31:20.782Z,76.51
2023-03-12T07:32:20.760Z,76.78
2023-03-12T07:33:20.898Z,75.74
2023-03-12T07:34:20.904Z,75.32
2023-03-12T07:35:20.818Z,76.06
2023-03-12T07:36:20.765Z,76.26
2023-03-12T07:37:20.686Z,75.32
2023-03-12T07:38:20.698Z,76.06
2023-03-12T07:39:20.687Z,75.40
2023-03-12T07:40:20.642Z,75.40
2023-03-12T07:41:20.737Z,74.84
2023-03-12T07:42:20.678Z,74.74
2023-03-12T07:43:21.835Z,74.43
2023-03-12T07:44:20.626Z,74.39
2023-03-12T07:45:20.664Z,74.04
2023-03-12T07:46:20.623Z,74.08
2023-03-12T07:47:24.256Z,73.00
2023-03-12T07:48:21.742Z,73.11
2023-03-12T07:49:20.591Z,72.55
2023-03-12T07:50:20.607Z,72.97
2023-03-12T07:51:20.561Z,72.66
2023-03-12T07:52:20.622Z,72.11
2023-03-12T07:53:20.551Z,72.11
2023-03-12T07:54:20.569Z,71.90
2023-03-12T07:55:20.683Z,71.14
2023-03-12T07:56:20.657Z,71.00
2023-03-12T07:57:20.539Z,70.17
2023-03-12T07:58:20.676Z,69.31
2023-03-12T07:59:20.512Z,68.79
2023-03-12T08:00:20.532Z,68.51
2023-03-12T08:01:20.537Z,68.72
2023-03-12T08:02:20.599Z,68.41
2023-03-12T08:03:20.721Z,69.24
2023-03-12T08:04:20.589Z,68.48
2023-03-12T08:05:20.455Z,67.13
2023-03-12T08:06:20.475Z,66.72
2023-03-12T08:07:20.470Z,66.78
2023-03-12T08:08:20.464Z,66.38
2023-03-12T08:09:20.443Z,66.27
2023-03-12T08:10:20.506Z,65.52
2023-03-12T08:11:21.235Z,66.14
2023-03-12T08:12:20.449Z,65.80
2023-03-12T08:13:20.504Z,65.20
2023-03-12T08:14:20.407Z,64.37
2023-03-12T08:15:20.375Z,64.55
2023-03-12T08:16:21.157Z,64.45
2023-03-12T08:17:20.373Z,64.14
2023-03-12T08:18:20.359Z,64.14
2023-03-12T08:19:20.332Z,64.00
2023-03-12T08:20:20.322Z,63.69
2023-03-12T08:21:20.331Z,63.93
2023-03-12T08:22:20.337Z,64.03
2023-03-12T08:23:20.296Z,64.37
2023-03-12T08:24:20.306Z,64.82
2023-03-12T08:25:20.305Z,64.69
2023-03-12T08:26:20.277Z,64.37
2023-03-12T08:27:20.277Z,64.58
2023-03-12T08:28:20.276Z,63.99
2023-03-12T08:29:20.249Z,65.58
2023-03-12T08:30:20.234Z,66.44
2023-03-12T08:31:20.252Z,67.19
2023-03-12T08:32:20.376Z,67.61
2023-03-12T08:33:20.210Z,67.19
2023-03-12T08:34:20.205Z,67.47
2023-03-12T08:35:20.209Z,67.27
2023-03-12T08:36:22.382Z,66.85
2023-03-12T08:37:21.189Z,68.20
2023-03-12T08:38:20.186Z,68.62
2023-03-12T08:39:20.211Z,69.13
2023-03-12T08:40:20.167Z,68.93
2023-03-12T08:41:20.203Z,68.90
2023-03-12T08:42:20.152Z,68.72
2023-03-12T08:43:20.149Z,70.17
2023-03-12T08:44:20.129Z,70.28
2023-03-12T08:45:20.148Z,70.38
2023-03-12T08:46:20.201Z,69.62
2023-03-12T08:47:20.099Z,68.76
2023-03-12T08:48:20.106Z,68.65
2023-03-12T08:49:20.100Z,68.52
2023-03-12T08:50:20.075Z,68.31
2023-03-12T08:51:20.085Z,68.00
2023-03-12T08:52:20.060Z,68.00
2023-03-12T08:53:20.054Z,67.76
2023-03-12T08:54:20.058Z,66.72
2023-03-12T08:55:20.047Z,67.03
2023-03-12T08:56:20.032Z,66.59
2023-03-12T08:57:20.048Z,66.38
2023-03-12T08:58:20.032Z,65.45
2023-03-12T08:59:20.004Z,64.80
2023-03-12T09:00:20.018Z,65.25
2023-03-12T09:01:20.006Z,64.07
2023-03-12T09:02:19.994Z,63.66
2023-03-12T09:03:20.021Z,63.97
2023-03-12T09:04:20.103Z,64.36
2023-03-12T09:05:19.967Z,64.04
2023-03-12T09:06:19.963Z,64.04
2023-03-12T09:07:19.947Z,64.39
2023-03-12T09:08:19.942Z,64.18
2023-03-12T09:09:19.929Z,64.36
2023-03-12T09:10:19.927Z,64.56
2023-03-12T09:11:19.944Z,64.04
2023-03-12T09:12:19.908Z,64.25
2023-03-12T09:13:19.893Z,64.32
2023-03-12T09:15:01.036Z,63.50
2023-03-12T09:15:21.881Z,63.40
2023-03-12T09:16:19.944Z,63.71
2023-03-12T09:17:19.889Z,63.92
2023-03-12T09:18:19.902Z,63.92
2023-03-12T09:19:19.850Z,63.60
2023-03-12T09:20:19.833Z,63.92
2023-03-12T09:21:20.679Z,64.02
2023-03-12T09:22:19.826Z,63.81
2023-03-12T09:23:19.815Z,63.40
2023-03-12T09:24:19.800Z,63.40
2023-03-12T09:25:19.820Z,63.26
2023-03-12T09:26:19.804Z,62.54
2023-03-12T09:27:19.776Z,61.95
2023-03-12T09:28:19.772Z,61.30
2023-03-12T09:29:19.751Z,61.30
2023-03-12T09:30:19.824Z,61.51
2023-03-12T09:31:19.786Z,61.51
2023-03-12T09:32:19.737Z,61.61
2023-03-12T09:33:19.738Z,61.40
2023-03-12T09:34:20.714Z,62.29
2023-03-12T09:35:19.710Z,62.88
2023-03-12T09:36:19.706Z,62.88
2023-03-12T09:37:21.654Z,62.26
2023-03-12T09:38:19.725Z,61.87
2023-03-12T09:39:19.711Z,61.98
2023-03-12T09:40:19.669Z,62.57
2023-03-12T09:41:19.662Z,62.16
2023-03-12T09:42:19.652Z,61.57
2023-03-12T09:43:19.644Z,61.43
2023-03-12T09:44:19.635Z,61.67
2023-03-12T09:45:19.630Z,61.54
2023-03-12T09:46:19.666Z,61.15
2023-03-12T09:47:19.641Z,60.91
2023-03-12T09:48:20.260Z,60.91
2023-03-12T09:49:19.592Z,60.89
2023-03-12T09:50:19.583Z,61.33
2023-03-12T09:51:19.580Z,61.64
2023-03-12T09:52:19.566Z,61.64
2023-03-12T09:53:19.582Z,61.51
2023-03-12T09:54:19.577Z,62.26
2023-03-12T09:55:19.534Z,62.67
2023-03-12T09:56:20.189Z,62.67
2023-03-12T09:57:19.532Z,63.74
2023-03-12T09:58:19.532Z,63.97
2023-03-12T09:59:19.506Z,64.56
2023-03-12T10:00:19.516Z,64.25
2023-03-12T10:01:19.504Z,63.81
2023-03-12T10:02:19.528Z,63.32
2023-03-12T10:03:19.482Z,63.95
2023-03-12T10:04:19.496Z,64.90
2023-03-12T10:05:19.468Z,65.97
2023-03-12T10:06:19.449Z,66.28
2023-03-12T10:07:20.185Z,66.41
2023-03-12T10:08:24.588Z,66.59
2023-03-12T10:09:21.439Z,65.53
2023-03-12T10:10:21.173Z,65.56
2023-03-12T10:11:19.429Z,66.08
2023-03-12T10:12:19.421Z,66.38
2023-03-12T10:13:19.416Z,66.15
2023-03-12T10:14:23.862Z,66.56
2023-03-12T10:15:20.401Z,66.25
2023-03-12T10:16:19.476Z,66.97
2023-03-12T10:17:19.361Z,66.77
2023-03-12T10:18:19.520Z,66.69
2023-03-12T10:19:19.371Z,66.97
2023-03-12T10:20:19.350Z,66.66
2023-03-12T10:21:19.337Z,66.53
2023-03-12T10:22:19.346Z,67.77
2023-03-12T10:23:19.325Z,67.91
2023-03-12T10:24:19.329Z,68.32
2023-03-12T10:25:19.315Z,68.84
2023-03-12T10:26:19.309Z,68.43
2023-03-12T10:27:19.292Z,68.46
2023-03-12T10:28:19.316Z,68.98
2023-03-12T10:29:19.285Z,69.04
2023-03-12T10:30:19.291Z,69.25
2023-03-12T10:31:19.283Z,70.21
2023-03-12T10:32:19.302Z,70.08
2023-03-12T10:33:19.245Z,70.08
2023-03-12T10:34:19.243Z,70.29
2023-03-12T10:35:21.626Z,70.70
2023-03-12T10:36:20.228Z,70.60
2023-03-12T10:37:19.210Z,70.39
2023-03-12T10:38:19.212Z,70.91
2023-03-12T10:39:19.193Z,70.91
2023-03-12T10:40:19.185Z,70.60
2023-03-12T10:41:19.173Z,71.25
2023-03-12T10:42:19.162Z,71.12
2023-03-12T10:43:19.170Z,71.43
2023-03-12T10:44:19.166Z,70.91
2023-03-12T10:45:19.155Z,71.12
2023-03-12T10:46:19.208Z,71.63
2023-03-12T10:47:19.136Z,71.39
2023-03-12T10:48:19.122Z,71.73
2023-03-12T10:49:19.119Z,71.81
2023-03-12T10:50:19.109Z,71.53
2023-03-12T10:51:19.102Z,71.63
2023-03-12T10:52:19.107Z,72.36
2023-03-12T10:53:19.082Z,72.56
2023-03-12T10:54:19.094Z,72.46
2023-03-12T10:55:19.686Z,73.29
2023-03-12T10:56:19.067Z,73.91
2023-03-12T10:57:19.054Z,75.19
2023-03-12T10:58:19.036Z,75.09
2023-03-12T10:59:19.042Z,75.78
2023-03-12T11:00:19.069Z,76.23
2023-03-12T11:01:19.073Z,76.23
2023-03-12T11:02:19.708Z,77.15
2023-03-12T11:03:19.009Z,76.12
2023-03-12T11:04:19.692Z,76.43
2023-03-12T11:05:19.004Z,76.32
2023-03-12T11:06:19.011Z,77.15
2023-03-12T11:07:18.959Z,77.47
2023-03-12T11:08:18.996Z,77.71
2023-03-12T11:09:18.961Z,78.09
2023-03-12T11:10:18.947Z,77.88
2023-03-12T11:11:18.939Z,77.92
2023-03-12T11:12:18.917Z,78.12
2023-03-12T11:13:18.954Z,79.92
2023-03-12T11:14:18.956Z,79.16
2023-03-12T11:15:18.913Z,79.88
2023-03-12T11:16:18.988Z,78.96
2023-03-12T11:17:18.884Z,79.71
2023-03-12T11:18:18.936Z,80.54
2023-03-12T11:19:18.920Z,81.27
2023-03-12T11:20:18.887Z,81.37
2023-03-12T11:21:18.849Z,81.99
2023-03-12T11:22:18.849Z,81.99
2023-03-12T11:23:18.881Z,82.55
2023-03-12T11:24:18.829Z,82.55
2023-03-12T11:25:18.823Z,82.51
2023-03-12T11:26:18.823Z,82.86
2023-03-12T11:27:18.807Z,83.07
2023-03-12T11:28:18.835Z,83.48
2023-03-12T11:29:18.863Z,83.48
2023-03-12T11:30:18.804Z,84.31
2023-03-12T11:31:18.872Z,84.31
2023-03-12T11:32:18.839Z,84.56
2023-03-12T11:33:18.771Z,84.11
2023-03-12T11:34:18.753Z,84.21
2023-03-12T11:35:18.767Z,84.31
2023-03-12T11:36:18.730Z,84.00
2023-03-12T11:37:18.729Z,83.80
2023-03-12T11:38:18.755Z,84.52
2023-03-12T11:39:18.761Z,85.11
2023-03-12T11:40:19.724Z,85.31
2023-03-12T11:41:18.724Z,84.80
2023-03-12T11:42:18.693Z,84.48
2023-03-12T11:43:29.247Z,84.48
2023-03-12T11:44:19.669Z,84.55
2023-03-12T11:45:18.669Z,85.06
2023-03-12T11:46:18.658Z,84.65
2023-03-12T11:47:18.668Z,85.06
2023-03-12T11:48:18.705Z,85.17
2023-03-12T11:49:18.639Z,85.73
2023-03-12T11:50:18.671Z,85.58
2023-03-12T11:51:18.602Z,85.69
2023-03-12T11:52:18.648Z,85.58
2023-03-12T11:53:18.599Z,85.69
2023-03-12T11:54:18.588Z,85.48
2023-03-12T11:55:18.582Z,85.79
2023-03-12T11:56:18.589Z,86.00
2023-03-12T11:57:18.556Z,86.35
2023-03-12T11:58:19.207Z,86.10
2023-03-12T11:59:18.554Z,85.79
2023-03-12T12:00:18.542Z,85.65
2023-03-12T12:01:18.527Z,85.75
2023-03-12T12:02:18.600Z,85.61
2023-03-12T12:03:18.550Z,84.99
2023-03-12T12:04:19.200Z,85.13
2023-03-12T12:05:18.504Z,85.34
2023-03-12T12:06:18.515Z,85.55
2023-03-12T12:07:18.483Z,85.09
2023-03-12T12:08:19.293Z,85.50
2023-03-12T12:09:18.457Z,85.47
2023-03-12T12:10:18.486Z,84.84
2023-03-12T12:11:18.436Z,85.16
2023-03-12T12:12:19.213Z,84.99
2023-03-12T12:13:18.481Z,84.74
2023-03-12T12:14:18.438Z,84.12
2023-03-12T12:15:18.428Z,84.88
2023-03-12T12:16:18.476Z,84.99
2023-03-12T12:17:18.812Z,84.74
2023-03-12T12:18:18.387Z,84.99
2023-03-12T12:19:18.422Z,85.47
2023-03-12T12:20:18.494Z,85.57
2023-03-12T12:21:18.394Z,84.95
2023-03-12T12:22:18.382Z,84.99
2023-03-12T12:23:18.353Z,85.09
2023-03-12T12:24:18.390Z,84.88
2023-03-12T12:25:18.345Z,84.88
2023-03-12T12:26:18.333Z,85.09
2023-03-12T12:27:18.394Z,84.99
2023-03-12T12:28:18.376Z,84.68
2023-03-12T12:29:18.295Z,85.34
2023-03-12T12:30:18.393Z,85.65
2023-03-12T12:31:18.363Z,86.07
2023-03-12T12:32:18.345Z,85.55
2023-03-12T12:33:18.324Z,85.19
2023-03-12T12:34:18.336Z,85.65
2023-03-12T12:35:18.245Z,86.17
2023-03-12T12:36:18.269Z,86.58
2023-03-12T12:37:18.286Z,86.29
2023-03-12T12:38:18.225Z,85.50
2023-03-12T12:39:18.236Z,86.02
2023-03-12T12:40:18.242Z,85.82
2023-03-12T12:41:18.197Z,85.92
2023-03-12T12:42:18.186Z,86.40
2023-03-12T12:43:18.179Z,86.75
2023-03-12T12:44:18.186Z,86.65
2023-03-12T12:45:18.166Z,86.65
2023-03-12T12:46:18.222Z,85.61
2023-03-12T12:47:18.161Z,86.65
2023-03-12T12:48:18.140Z,86.13
2023-03-12T12:49:18.147Z,86.02
2023-03-12T12:50:18.715Z,85.40
2023-03-12T12:51:18.126Z,85.92
2023-03-12T12:52:18.122Z,85.71
2023-03-12T12:53:18.088Z,85.50